Time;durP1;ratioP1;P1;durP2;ratioP2;P2;SDS_P1;SDS_P2;PMS_P1;PMS_P2;Temp;Humidity;BMP_temperature;BMP_pressure;BME280_temperature;BME280_humidity;BME280_pressure;Samples;Min_cycle;Max_cycle;Signal;HPM_P1;HPM_P2
2021/12/24 00:01:56;;;;;;;21.82;11.60;;;;;;;-0.28;82.40;97765.48;4007230;86;21259;-81
2021/12/24 00:07:59;;;;;;;26.33;12.28;;;;;;;-0.28;82.40;97765.48;4006421;87;21140;-80
2021/12/24 00:14:03;;;;;;;26.05;12.55;;;;;;;-0.33;82.97;97775.11;3999331;88;21104;-80
2021/12/24 00:20:35;;;;;;;22.70;11.75;;;;;;;-0.34;83.32;97756.07;3990892;87;21072;-80
2021/12/24 00:38:54;;;;;;;24.40;12.30;;;;;;;-0.38;84.28;97726.16;4005357;87;21142;-80
2021/12/24 00:44:56;;;;;;;21.70;11.05;;;;;;;-0.41;84.97;97716.83;4007854;87;21576;-81
2021/12/24 00:56:58;;;;;;;20.32;9.15;;;;;;;-0.35;85.71;97690.53;4009623;87;21822;-80
2021/12/24 01:03:05;;;;;;;22.95;11.53;;;;;;;-0.42;86.21;97676.30;4015077;87;21101;-82
2021/12/24 01:09:07;;;;;;;20.62;10.80;;;;;;;-0.41;86.25;97666.33;4029825;88;21110;-80
2021/12/24 01:15:10;;;;;;;18.15;10.10;;;;;;;-0.45;86.55;97654.66;4046226;86;21682;-80
2021/12/24 01:21:26;;;;;;;20.60;11.78;;;;;;;-0.48;87.34;97627.11;4032530;86;21066;-80
2021/12/24 01:45:51;;;;;;;18.77;9.55;;;;;;;-0.41;88.24;97607.19;3988303;87;21053;-80
2021/12/24 01:51:53;;;;;;;15.97;8.13;;;;;;;-0.40;88.24;97591.27;3955115;88;21078;-80
2021/12/24 01:57:57;;;;;;;16.80;9.18;;;;;;;-0.40;88.46;97583.99;3950703;88;21571;-80
2021/12/24 02:03:58;;;;;;;14.93;10.03;;;;;;;-0.38;89.19;97564.83;4033258;86;21085;-80
2021/12/24 02:09:59;;;;;;;18.95;10.38;;;;;;;-0.38;89.19;97564.83;4007194;87;21072;-81
2021/12/24 02:16:12;;;;;;;17.95;9.88;;;;;;;-0.36;89.09;97568.73;3994525;87;21079;-80
2021/12/24 02:28:30;;;;;;;18.57;10.20;;;;;;;-0.34;89.85;97533.45;4002470;87;21116;-79
2021/12/24 02:34:27;;;;;;;20.50;11.03;;;;;;;-0.34;89.85;97533.45;4007149;87;21098;-79
2021/12/24 02:40:32;;;;;;;15.38;10.00;;;;;;;-0.34;90.64;97514.08;4003149;87;21061;-80
2021/12/24 02:59:14;;;;;;;21.35;10.13;;;;;;;-0.32;91.27;97488.19;3988716;87;21667;-79
2021/12/24 03:05:19;;;;;;;18.40;10.45;;;;;;;-0.32;91.64;97478.78;4031014;87;21061;-80
2021/12/24 03:11:23;;;;;;;17.62;9.93;;;;;;;-0.28;91.86;97474.27;4020176;87;21553;-78
2021/12/24 03:17:26;;;;;;;17.55;10.50;;;;;;;-0.22;91.85;97468.31;4056592;87;21072;-79
2021/12/24 03:23:42;;;;;;;17.35;9.58;;;;;;;-0.17;91.99;97463.26;4041052;87;21096;-79
2021/12/24 03:29:42;;;;;;;18.27;10.25;;;;;;;-0.28;92.33;97446.83;3949127;89;21100;-80
2021/12/24 03:35:43;;;;;;;16.40;9.30;;;;;;;-0.22;92.45;97454.11;3950882;88;22126;-80
2021/12/24 03:41:45;;;;;;;18.23;10.10;;;;;;;-0.21;92.83;97464.52;3948108;89;21121;-79
2021/12/24 03:47:53;;;;;;;15.08;9.85;;;;;;;-0.15;92.92;97465.84;3998094;87;21102;-80
2021/12/24 04:00:22;;;;;;;18.25;10.32;;;;;;;-0.14;93.08;97447.78;4035247;86;21054;-80
2021/12/24 04:06:26;;;;;;;18.12;10.30;;;;;;;-0.13;93.27;97446.12;4046640;86;21137;-80
2021/12/24 04:12:35;;;;;;;18.40;9.95;;;;;;;-0.18;93.18;97411.95;4020018;87;21097;-81
2021/12/24 04:18:56;;;;;;;17.85;10.18;;;;;;;-0.13;93.26;97423.26;3920134;88;21055;-81
2021/12/24 04:24:53;;;;;;;17.95;9.78;;;;;;;-0.13;93.26;97423.26;3999559;88;21070;-81
2021/12/24 04:30:54;;;;;;;17.80;9.85;;;;;;;-0.05;94.01;97428.27;4053557;86;21093;-81
2021/12/24 04:37:37;;;;;;;18.07;10.55;;;;;;;-0.19;94.23;97384.84;4004940;87;21621;-81
2021/12/24 05:14:15;;;;;;;16.17;9.43;;;;;;;-0.02;95.59;97398.74;3891251;89;21107;-81
2021/12/24 05:26:47;;;;;;;14.93;9.65;;;;;;;0.01;96.50;97387.88;3926113;88;22056;-81
2021/12/24 05:32:50;;;;;;;16.00;8.28;;;;;;;0.02;96.06;97392.12;3857537;91;21653;-81
2021/12/24 05:38:54;;;;;;;15.60;9.03;;;;;;;0.05;96.04;97377.98;3894980;90;21127;-81
2021/12/24 05:45:04;;;;;;;13.83;8.18;;;;;;;0.08;96.10;97381.91;3840872;91;21704;-82
2021/12/24 05:51:09;;;;;;;14.33;8.88;;;;;;;0.06;96.16;97362.63;3912845;90;21091;-82
2021/12/24 05:57:29;;;;;;;14.78;8.70;;;;;;;0.05;96.50;97344.34;3897069;90;21091;-80
2021/12/24 06:03:46;;;;;;;17.10;10.10;;;;;;;0.05;96.50;97344.34;3836906;91;21196;-81
2021/12/24 06:09:54;;;;;;;15.68;8.55;;;;;;;0.17;96.99;97379.27;3871344;91;22269;-81
2021/12/24 06:16:24;;;;;;;15.95;9.18;;;;;;;0.19;97.06;97381.61;3941360;90;21513;-81
2021/12/24 06:29:21;;;;;;;18.45;10.63;;;;;;;0.26;97.34;97374.49;3937114;89;21577;-81
2021/12/24 06:35:24;;;;;;;18.55;9.15;;;;;;;0.33;97.38;97384.08;3935019;90;21062;-80
2021/12/24 06:41:37;;;;;;;15.23;9.85;;;;;;;0.35;97.15;97380.48;3976244;88;21118;-80
2021/12/24 06:47:40;;;;;;;16.55;9.40;;;;;;;0.35;97.15;97384.52;3982380;87;21139;-80
2021/12/24 06:53:43;;;;;;;17.48;10.40;;;;;;;0.39;97.86;97379.23;3968190;87;21201;-80
2021/12/24 06:59:47;;;;;;;17.65;11.68;;;;;;;0.39;97.86;97379.23;3983684;88;21191;-81
2021/12/24 07:05:53;;;;;;;15.00;10.40;;;;;;;0.48;97.84;97386.00;3974483;87;21130;-81
2021/12/24 07:11:58;;;;;;;21.30;13.50;;;;;;;0.55;97.68;97390.78;4033864;87;21936;-81
2021/12/24 07:18:01;;;;;;;17.37;10.50;;;;;;;0.56;97.64;97396.38;3917636;88;21085;-82
2021/12/24 07:24:04;;;;;;;21.27;12.88;;;;;;;0.49;97.45;97394.28;3992134;87;21045;-81
2021/12/24 07:30:10;;;;;;;20.50;11.00;;;;;;;0.46;97.70;97380.17;4046129;86;21038;-81
2021/12/24 07:36:11;;;;;;;26.87;12.73;;;;;;;0.45;97.97;97373.24;4049424;86;21054;-81
2021/12/24 07:42:13;;;;;;;26.00;13.65;;;;;;;0.49;98.45;97376.78;4046153;86;21732;-81
2021/12/24 07:48:26;;;;;;;29.27;15.30;;;;;;;0.56;98.84;97366.76;4036032;86;21137;-81
2021/12/24 07:54:23;;;;;;;25.00;13.28;;;;;;;0.67;98.85;97377.22;4045587;86;21554;-81
2021/12/24 08:00:27;;;;;;;16.77;9.63;;;;;;;0.75;98.99;97372.22;4026775;87;21109;-81
2021/12/24 08:06:29;;;;;;;20.25;10.13;;;;;;;0.87;99.38;97358.63;4029323;86;21058;-81
2021/12/24 08:12:35;;;;;;;17.65;9.75;;;;;;;0.99;99.51;97372.77;4021036;87;21101;-82
2021/12/24 08:18:43;;;;;;;17.95;9.88;;;;;;;1.06;99.65;97378.89;4027439;86;21034;-82
2021/12/24 08:24:45;;;;;;;13.00;7.40;;;;;;;1.06;99.70;97356.77;4049313;86;21058;-82
2021/12/24 08:30:58;;;;;;;17.02;9.20;;;;;;;1.12;100.00;97357.27;4045666;87;22193;-82
2021/12/24 08:37:25;;;;;;;24.55;11.95;;;;;;;1.18;100.00;97362.59;4046067;87;21073;-82
2021/12/24 08:43:39;;;;;;;24.98;12.05;;;;;;;1.23;100.00;97366.36;4018770;87;21669;-81
2021/12/24 08:49:43;;;;;;;15.45;8.90;;;;;;;1.26;100.00;97360.25;4050115;87;21607;-82
2021/12/24 08:55:45;;;;;;;13.83;8.13;;;;;;;1.32;100.00;97358.84;4026144;87;21095;-82
2021/12/24 09:01:52;;;;;;;11.53;6.58;;;;;;;1.40;100.00;97356.51;4038411;86;21097;-81
2021/12/24 09:07:53;;;;;;;10.60;6.05;;;;;;;1.46;100.00;97354.53;4060035;86;21141;-81
2021/12/24 09:13:54;;;;;;;14.05;6.65;;;;;;;1.55;100.00;97332.75;4035122;87;21510;-81
2021/12/24 09:19:58;;;;;;;11.28;5.15;;;;;;;1.67;100.00;97330.45;4035764;86;21130;-81
2021/12/24 09:25:59;;;;;;;12.00;6.28;;;;;;;1.76;100.00;97330.44;4045160;86;21085;-82
2021/12/24 09:38:41;;;;;;;12.05;6.53;;;;;;;1.96;100.00;97308.27;4022899;86;21162;-80
2021/12/24 09:44:42;;;;;;;16.65;8.20;;;;;;;2.02;100.00;97307.58;4046000;87;21082;-80
2021/12/24 09:57:50;;;;;;;14.03;8.33;;;;;;;2.12;100.00;97298.11;4030715;87;21036;-80
2021/12/24 10:04:03;;;;;;;18.95;8.88;;;;;;;2.09;100.00;97282.64;4040808;87;21057;-81
2021/12/24 10:10:07;;;;;;;17.98;9.38;;;;;;;2.16;100.00;97283.53;4037636;86;21146;-81
2021/12/24 10:16:27;;;;;;;23.38;10.55;;;;;;;2.19;100.00;97280.14;4053203;86;21147;-81
2021/12/24 10:22:28;;;;;;;17.82;8.93;;;;;;;2.18;100.00;97285.86;4036515;87;21077;-81
2021/12/24 10:28:31;;;;;;;16.75;8.53;;;;;;;2.19;100.00;97280.14;4034854;87;21491;-81
2021/12/24 10:34:44;;;;;;;20.02;9.53;;;;;;;2.21;100.00;97267.63;4039147;87;21662;-81
2021/12/24 10:41:07;;;;;;;27.98;14.05;;;;;;;2.34;100.00;97258.95;4047397;86;21636;-82
2021/12/24 10:47:15;;;;;;;24.82;11.12;;;;;;;2.45;100.00;97245.04;4040603;86;21037;-82
2021/12/24 10:53:33;;;;;;;22.17;10.45;;;;;;;2.52;100.00;97250.53;4049578;86;21113;-81
2021/12/24 10:59:44;;;;;;;21.37;10.20;;;;;;;2.58;100.00;97245.05;4048555;86;21073;-83
2021/12/24 11:05:56;;;;;;;16.62;8.65;;;;;;;2.61;100.00;97216.52;4038052;87;21498;-81
2021/12/24 11:12:08;;;;;;;13.72;7.60;;;;;;;2.56;100.00;97226.28;3998257;88;21029;-82
2021/12/24 11:18:38;;;;;;;14.43;7.60;;;;;;;2.61;100.00;97229.45;3989356;88;21161;-83
2021/12/24 11:24:59;;;;;;;14.20;7.97;;;;;;;2.63;100.00;97254.75;3868171;92;21084;-84
2021/12/24 11:45:23;;;;;;;15.00;8.38;;;;;;;2.62;100.00;97181.03;4001336;88;21743;-85
2021/12/24 12:05:27;;;;;;;22.55;10.65;;;;;;;2.67;100.00;97193.44;3950575;89;22113;-84
2021/12/24 12:18:13;;;;;;;23.80;10.28;;;;;;;2.82;100.00;97178.38;4037860;86;20188;-85
2021/12/24 12:53:41;;;;;;;17.82;7.87;;;;;;;3.10;100.00;97161.73;3987097;88;21099;-86
2021/12/24 13:27:53;;;;;;;21.77;10.82;;;;;;;3.17;100.00;97199.64;3869818;91;21192;-85
2021/12/24 13:41:09;;;;;;;23.18;11.35;;;;;;;3.27;100.00;97172.52;3864627;91;21639;-84
2021/12/24 14:01:39;;;;;;;11.65;6.87;;;;;;;3.28;100.00;97217.33;3809353;93;21158;-84
2021/12/24 14:15:11;;;;;;;11.70;5.85;;;;;;;3.57;100.00;97215.91;3861019;86;21600;-85
2021/12/24 14:27:31;;;;;;;14.83;7.60;;;;;;;3.78;100.00;97222.89;3927465;88;21146;-85
2021/12/24 14:55:25;;;;;;;18.07;8.78;;;;;;;3.98;100.00;97228.28;3944732;88;21090;-83
2021/12/24 15:01:42;;;;;;;13.05;6.78;;;;;;;3.97;100.00;97211.84;3963747;88;22381;-84
2021/12/24 15:08:42;;;;;;;12.50;7.62;;;;;;;4.16;100.00;97228.43;3955013;88;21203;-86
2021/12/24 15:56:23;;;;;;;21.68;9.53;;;;;;;4.37;100.00;97216.41;3891120;91;21124;-86
2021/12/24 16:09:43;;;;;;;21.02;9.95;;;;;;;4.33;100.00;97215.59;3890879;90;21085;-86
2021/12/24 16:15:47;;;;;;;21.02;9.60;;;;;;;4.35;100.00;97201.10;3897369;89;21078;-85
2021/12/24 17:09:43;;;;;;;12.70;4.95;;;;;;;4.99;100.00;97185.38;3914379;90;21068;-86
2021/12/24 17:29:55;;;;;;;11.38;5.75;;;;;;;5.24;100.00;97160.48;3867525;90;25163;-87
2021/12/24 17:36:23;;;;;;;18.32;8.18;;;;;;;5.22;100.00;97162.78;3887355;90;21087;-87
2021/12/24 17:56:36;;;;;;;16.23;6.35;;;;;;;5.20;99.11;97179.26;3913879;88;21069;-88
2021/12/24 18:02:38;;;;;;;15.23;7.12;;;;;;;5.09;99.24;97177.09;4008237;87;21055;-88
2021/12/24 18:08:40;;;;;;;11.48;6.10;;;;;;;5.10;99.36;97178.06;3990443;87;21063;-89
2021/12/24 18:14:41;;;;;;;15.85;7.37;;;;;;;5.11;99.47;97178.25;3984719;87;22025;-88
2021/12/24 18:20:43;;;;;;;15.40;7.25;;;;;;;5.00;99.20;97183.42;4008663;87;21405;-87
2021/12/24 18:27:43;;;;;;;17.07;7.58;;;;;;;4.99;99.52;97194.09;3983042;87;21045;-88
2021/12/24 18:33:45;;;;;;;16.10;7.50;;;;;;;4.97;99.58;97188.26;3982194;87;21057;-88
2021/12/24 18:39:47;;;;;;;12.55;6.83;;;;;;;5.05;98.65;97181.14;3996662;88;21191;-87
2021/12/24 18:45:50;;;;;;;11.12;5.53;;;;;;;5.19;97.84;97173.05;4082689;85;21088;-88
2021/12/24 18:59:25;;;;;;;12.20;4.12;;;;;;;5.41;96.66;97163.02;4048575;85;21684;-87
2021/12/24 19:05:28;;;;;;;8.33;4.62;;;;;;;5.60;95.67;97151.81;4047403;87;21693;-88
2021/12/24 19:18:58;;;;;;;9.13;3.77;;;;;;;5.98;94.97;97168.14;4004565;87;21111;-87
2021/12/24 19:32:07;;;;;;;7.90;3.50;;;;;;;6.08;93.33;97164.66;3824224;92;21091;-86
2021/12/24 19:38:34;;;;;;;4.90;2.33;;;;;;;6.05;93.48;97175.52;4016935;87;21075;-87
2021/12/24 19:44:49;;;;;;;6.72;3.20;;;;;;;6.14;91.79;97175.33;3962773;88;21091;-86
2021/12/24 19:50:54;;;;;;;8.00;3.80;;;;;;;6.18;92.64;97179.41;4007845;88;21083;-86
2021/12/24 20:17:36;;;;;;;10.35;3.60;;;;;;;6.59;90.01;97180.52;3923672;90;21669;-87
2021/12/24 20:23:38;;;;;;;7.12;3.37;;;;;;;6.69;89.27;97193.30;4061577;87;22146;-88
2021/12/24 20:29:39;;;;;;;8.20;3.40;;;;;;;6.64;89.33;97186.89;4027498;87;21083;-86
2021/12/24 20:35:41;;;;;;;6.75;3.90;;;;;;;6.67;86.94;97189.42;4046670;87;21116;-86
2021/12/24 20:42:41;;;;;;;5.87;3.33;;;;;;;6.63;88.42;97206.31;4086073;86;21595;-87
2021/12/24 20:49:10;;;;;;;7.12;4.17;;;;;;;6.78;87.92;97205.13;3952705;87;22400;-87
2021/12/24 21:22:59;;;;;;;6.92;3.52;;;;;;;6.54;88.28;97252.95;3908636;90;21247;-86
2021/12/24 21:35:37;;;;;;;7.17;3.75;;;;;;;6.59;87.31;97277.03;3953534;89;21115;-87
2021/12/24 21:48:44;;;;;;;9.25;4.55;;;;;;;6.61;87.38;97305.19;3997014;89;21184;-88
2021/12/24 21:55:49;;;;;;;8.48;4.25;;;;;;;6.41;87.17;97382.25;3961938;89;21062;-87
2021/12/24 22:02:20;;;;;;;6.05;3.08;;;;;;;5.59;87.97;97389.89;3985552;87;21099;-88
2021/12/24 22:22:30;;;;;;;10.82;3.70;;;;;;;3.69;90.30;97515.25;3827864;88;22021;-88
2021/12/24 22:28:32;;;;;;;7.58;3.52;;;;;;;3.21;90.50;97547.95;3840092;91;21669;-87
2021/12/24 22:34:34;;;;;;;9.18;3.83;;;;;;;2.99;90.49;97546.79;3824298;90;21181;-88
2021/12/24 22:40:38;;;;;;;8.53;4.25;;;;;;;2.89;90.42;97554.16;3902435;90;21194;-87
2021/12/24 22:46:39;;;;;;;11.10;5.62;;;;;;;2.75;90.20;97581.48;3900473;90;21665;-87
2021/12/24 22:52:42;;;;;;;6.15;2.98;;;;;;;2.67;90.41;97591.38;3905660;90;21192;-87
2021/12/24 23:53:36;;;;;;;4.08;2.40;;;;;;;1.41;91.89;97720.72;3986971;88;22101;-87
